Time;durP1;ratioP1;P1;durP2;ratioP2;P2;SDS_P1;SDS_P2;PMS_P1;PMS_P2;Temp;Humidity;BMP_temperature;BMP_pressure;BME280_temperature;BME280_humidity;BME280_pressure;Samples;Min_cycle;Max_cycle;Signal;HPM_P1;HPM_P2
2022/05/23 00:01:42;;;;;;;1.10;0.70;;;26.00;45.70;;;;;;5023958;28;20041;-66
2022/05/23 00:04:08;;;;;;;0.98;0.70;;;26.00;45.80;;;;;;5027540;28;20581;-63
2022/05/23 00:06:34;;;;;;;0.95;0.70;;;26.00;45.80;;;;;;5027286;28;20032;-66
2022/05/23 00:09:00;;;;;;;1.13;0.70;;;26.00;45.80;;;;;;5030061;28;20110;-66
2022/05/23 00:11:26;;;;;;;1.00;0.70;;;26.00;45.80;;;;;;5030231;28;20623;-67
2022/05/23 00:13:51;;;;;;;0.85;0.80;;;26.00;45.80;;;;;;5008901;28;20121;-66
2022/05/23 00:16:23;;;;;;;1.17;0.60;;;25.90;45.70;;;;;;5027297;28;20109;-66
2022/05/23 00:18:50;;;;;;;0.70;0.60;;;26.00;45.90;;;;;;5029600;28;20057;-66
2022/05/23 00:21:17;;;;;;;1.05;0.70;;;25.90;45.80;;;;;;5029815;28;20029;-64
2022/05/23 00:23:43;;;;;;;1.23;0.80;;;25.90;45.80;;;;;;5027339;28;20044;-66
2022/05/23 00:26:11;;;;;;;1.00;0.70;;;25.90;45.80;;;;;;5029345;28;20069;-61
2022/05/23 00:28:39;;;;;;;1.02;0.77;;;25.90;45.80;;;;;;5024403;28;20625;-65
2022/05/23 00:31:06;;;;;;;1.00;0.80;;;25.90;45.80;;;;;;5027328;28;20037;-66
2022/05/23 00:36:17;;;;;;;0.70;0.70;;;25.90;45.80;;;;;;5028616;28;20051;-66
2022/05/23 00:38:43;;;;;;;1.00;0.70;;;25.90;45.90;;;;;;5028902;28;20108;-66
2022/05/23 00:44:24;;;;;;;1.48;0.70;;;25.90;45.90;;;;;;5027676;28;20045;-66
2022/05/23 00:46:59;;;;;;;1.10;0.80;;;25.90;45.90;;;;;;5030346;28;20025;-66
2022/05/23 00:49:31;;;;;;;1.05;0.70;;;25.80;45.80;;;;;;5027608;28;20029;-70
2022/05/23 00:52:01;;;;;;;0.80;0.70;;;25.90;46.00;;;;;;5028166;28;20765;-66
2022/05/23 00:54:33;;;;;;;1.00;0.70;;;25.80;46.30;;;;;;5027527;28;20442;-66
2022/05/23 00:56:59;;;;;;;0.85;0.63;;;25.80;45.90;;;;;;5023167;28;20044;-66
2022/05/23 00:59:30;;;;;;;0.88;0.70;;;25.80;45.80;;;;;;5026910;28;20036;-61
2022/05/23 01:01:57;;;;;;;0.77;0.70;;;25.80;45.90;;;;;;5025913;28;20033;-66
2022/05/23 01:04:23;;;;;;;0.80;0.52;;;25.80;45.90;;;;;;5026640;28;20033;-66
2022/05/23 01:06:49;;;;;;;0.82;0.70;;;25.80;45.90;;;;;;5026380;28;20025;-66
2022/05/23 01:09:15;;;;;;;0.60;0.60;;;25.80;45.90;;;;;;5028422;28;20036;-64
2022/05/23 01:11:40;;;;;;;0.70;0.60;;;25.80;45.90;;;;;;5023460;28;20021;-66
2022/05/23 01:14:06;;;;;;;0.73;0.65;;;25.80;45.90;;;;;;5024865;28;20120;-66
2022/05/23 01:16:32;;;;;;;0.90;0.70;;;25.80;45.90;;;;;;5027821;28;20123;-66
2022/05/23 01:18:58;;;;;;;1.08;0.60;;;25.80;45.90;;;;;;5028674;28;20025;-66
2022/05/23 01:21:46;;;;;;;0.90;0.70;;;25.80;45.90;;;;;;5028606;28;20025;-66
2022/05/23 01:24:43;;;;;;;0.80;0.80;;;25.80;45.90;;;;;;5025727;28;20468;-66
2022/05/23 01:27:10;;;;;;;0.80;0.70;;;25.80;45.90;;;;;;4992415;28;20077;-66
2022/05/23 01:29:37;;;;;;;0.70;0.65;;;25.70;45.90;;;;;;5027873;28;20033;-66
2022/05/23 01:32:03;;;;;;;0.98;0.70;;;25.70;45.90;;;;;;5027351;28;20038;-66
2022/05/23 01:34:28;;;;;;;0.90;0.63;;;25.70;45.90;;;;;;5030149;28;20780;-66
2022/05/23 01:36:54;;;;;;;0.65;0.60;;;25.70;45.90;;;;;;5027066;28;20037;-66
2022/05/23 01:39:20;;;;;;;0.80;0.70;;;25.70;45.90;;;;;;5008477;28;20037;-66
2022/05/23 01:41:46;;;;;;;0.93;0.70;;;25.70;45.90;;;;;;5026209;28;20095;-65
2022/05/23 01:44:12;;;;;;;2.33;0.82;;;25.70;45.90;;;;;;5025063;28;20489;-66
2022/05/23 01:46:38;;;;;;;0.60;0.60;;;25.70;45.90;;;;;;5027149;28;20618;-66
2022/05/23 01:49:03;;;;;;;1.00;0.80;;;25.70;45.90;;;;;;5025504;28;20035;-66
2022/05/23 01:51:29;;;;;;;0.60;0.60;;;25.70;45.90;;;;;;5026537;28;20037;-66
2022/05/23 01:53:55;;;;;;;1.10;0.70;;;25.70;45.90;;;;;;5027119;28;20086;-65
2022/05/23 01:56:20;;;;;;;0.70;0.60;;;25.70;45.90;;;;;;5025857;28;20032;-66
2022/05/23 02:01:30;;;;;;;0.70;0.70;;;25.70;46.00;;;;;;5023177;28;20795;-65
2022/05/23 02:03:56;;;;;;;1.05;0.60;;;25.70;46.00;;;;;;5027388;28;20037;-66
2022/05/23 02:06:22;;;;;;;1.05;0.70;;;25.70;46.00;;;;;;5023571;28;20029;-64
2022/05/23 02:08:47;;;;;;;1.15;0.70;;;25.70;46.00;;;;;;5026253;28;20028;-66
2022/05/23 02:11:14;;;;;;;0.63;0.60;;;25.70;46.00;;;;;;5025164;28;20110;-66
2022/05/23 02:13:42;;;;;;;1.30;0.70;;;25.70;46.00;;;;;;5023183;28;20087;-61
2022/05/23 02:16:08;;;;;;;1.10;0.67;;;25.70;46.10;;;;;;5027603;28;20037;-66
2022/05/23 02:18:34;;;;;;;0.90;0.70;;;25.70;46.00;;;;;;5023988;28;20053;-67
2022/05/23 02:20:59;;;;;;;0.95;0.68;;;25.70;46.00;;;;;;5011150;28;20640;-66
2022/05/23 02:23:25;;;;;;;1.40;0.80;;;25.70;46.00;;;;;;5025291;28;20071;-66
2022/05/23 02:25:52;;;;;;;1.17;0.80;;;25.60;46.00;;;;;;5025220;28;20310;-66
2022/05/23 02:28:18;;;;;;;1.10;0.70;;;25.60;46.00;;;;;;5021672;28;20083;-66
2022/05/23 02:30:47;;;;;;;0.98;0.80;;;25.70;46.00;;;;;;5027072;28;20064;-66
2022/05/23 02:33:12;;;;;;;0.80;0.60;;;25.60;46.00;;;;;;5025318;28;20052;-65
2022/05/23 02:35:38;;;;;;;0.60;0.60;;;25.60;46.00;;;;;;5028515;28;20275;-66
2022/05/23 02:38:04;;;;;;;0.90;0.70;;;25.60;46.00;;;;;;5027381;28;20033;-66
2022/05/23 02:40:29;;;;;;;0.85;0.68;;;25.60;46.00;;;;;;5025388;28;20044;-63
2022/05/23 02:42:55;;;;;;;0.85;0.63;;;25.60;46.00;;;;;;5020001;28;20051;-62
2022/05/23 02:45:21;;;;;;;0.88;0.60;;;25.60;46.50;;;;;;5025650;28;20471;-62
2022/05/23 02:47:46;;;;;;;0.60;0.60;;;25.60;46.00;;;;;;5009657;28;20025;-66
2022/05/23 02:50:13;;;;;;;0.82;0.70;;;25.60;46.00;;;;;;5026616;28;20104;-66
2022/05/23 02:52:40;;;;;;;0.70;0.65;;;25.60;46.10;;;;;;5024689;28;20017;-66
2022/05/23 02:55:07;;;;;;;0.68;0.68;;;25.60;46.00;;;;;;5025985;28;20040;-62
2022/05/23 02:57:33;;;;;;;1.17;0.70;;;25.60;46.00;;;;;;5021065;28;20408;-65
2022/05/23 02:59:59;;;;;;;0.65;0.65;;;25.60;46.00;;;;;;5023945;28;20033;-66
2022/05/23 03:05:10;;;;;;;0.60;0.60;;;25.60;46.00;;;;;;5026243;28;20044;-66
2022/05/23 03:07:35;;;;;;;1.25;0.65;;;25.50;46.00;;;;;;5024706;28;20028;-64
2022/05/23 03:10:01;;;;;;;0.80;0.70;;;25.50;46.00;;;;;;5023918;28;20037;-61
2022/05/23 03:12:28;;;;;;;0.73;0.70;;;25.60;46.00;;;;;;5014304;28;20104;-66
2022/05/23 03:14:55;;;;;;;1.00;0.70;;;25.60;46.10;;;;;;5024675;28;20080;-66
2022/05/23 03:17:20;;;;;;;0.93;0.70;;;25.50;46.00;;;;;;5027149;28;20116;-67
2022/05/23 03:19:46;;;;;;;0.60;0.60;;;25.60;46.10;;;;;;5025723;28;20060;-66
2022/05/23 03:27:47;;;;;;;0.60;0.60;;;25.50;46.10;;;;;;4990509;28;20037;-66
2022/05/23 03:30:13;;;;;;;1.38;0.77;;;25.50;46.10;;;;;;5014323;28;20701;-66
2022/05/23 03:32:39;;;;;;;0.93;0.60;;;25.50;46.10;;;;;;5024401;28;20360;-66
2022/05/23 03:35:07;;;;;;;0.70;0.65;;;25.50;46.10;;;;;;5024337;28;20034;-66
2022/05/23 03:37:33;;;;;;;0.70;0.68;;;25.50;46.10;;;;;;5023202;28;20399;-63
2022/05/23 03:39:58;;;;;;;1.83;0.70;;;25.50;46.10;;;;;;5031550;28;20036;-66
2022/05/23 03:42:24;;;;;;;0.80;0.60;;;25.50;46.10;;;;;;5023326;28;20037;-66
2022/05/23 03:44:49;;;;;;;0.70;0.70;;;25.50;46.10;;;;;;5030058;28;21442;-66
2022/05/23 03:47:15;;;;;;;0.88;0.60;;;25.50;46.10;;;;;;5029613;28;20105;-67
2022/05/23 03:49:41;;;;;;;0.93;0.80;;;25.50;46.10;;;;;;5029349;28;20025;-66
2022/05/23 03:52:07;;;;;;;0.65;0.50;;;25.50;46.10;;;;;;5021691;28;20124;-66
2022/05/23 03:54:33;;;;;;;0.60;0.60;;;25.50;46.10;;;;;;5026336;28;20037;-66
2022/05/23 03:57:00;;;;;;;0.65;0.60;;;25.50;46.20;;;;;;5023550;28;20803;-62
2022/05/23 03:59:27;;;;;;;0.90;0.60;;;25.50;46.10;;;;;;5029826;28;20041;-65
2022/05/23 04:01:55;;;;;;;1.10;0.70;;;25.50;46.10;;;;;;5024338;28;20038;-65
2022/05/23 04:04:25;;;;;;;0.82;0.70;;;25.50;46.10;;;;;;5030744;28;20090;-65
2022/05/23 04:06:52;;;;;;;0.98;0.70;;;25.50;46.10;;;;;;5030335;28;20053;-66
2022/05/23 04:09:18;;;;;;;0.90;0.57;;;25.50;46.10;;;;;;5030744;28;20123;-62
2022/05/23 04:11:44;;;;;;;0.80;0.60;;;25.40;46.10;;;;;;5028290;28;20778;-63
2022/05/23 04:14:10;;;;;;;1.27;0.75;;;25.40;46.10;;;;;;5023537;28;20037;-65
2022/05/23 04:16:36;;;;;;;0.70;0.70;;;25.40;46.10;;;;;;5028605;28;20047;-66
2022/05/23 04:19:05;;;;;;;0.93;0.70;;;25.40;46.10;;;;;;5027233;28;20041;-64
2022/05/23 04:21:31;;;;;;;1.17;0.70;;;25.40;46.10;;;;;;5027659;28;20108;-66
2022/05/23 04:23:57;;;;;;;1.27;0.68;;;25.40;46.10;;;;;;5026186;28;20110;-67
2022/05/23 04:26:23;;;;;;;0.80;0.70;;;25.40;46.10;;;;;;5025491;28;20145;-62
2022/05/23 04:28:49;;;;;;;0.60;0.60;;;25.40;46.10;;;;;;5025048;28;20079;-63
2022/05/23 04:31:14;;;;;;;0.63;0.60;;;25.40;46.10;;;;;;5029966;28;20059;-62
2022/05/23 04:36:24;;;;;;;1.00;0.70;;;25.40;46.10;;;;;;5027734;28;20140;-63
2022/05/23 04:38:50;;;;;;;1.05;0.70;;;25.40;46.10;;;;;;5025888;28;20048;-59
2022/05/23 04:41:16;;;;;;;0.98;0.60;;;25.40;46.10;;;;;;5027717;28;20029;-64
2022/05/23 04:43:41;;;;;;;1.00;0.70;;;25.40;46.10;;;;;;5024190;28;20039;-65
2022/05/23 04:46:07;;;;;;;1.38;0.70;;;25.40;46.10;;;;;;5029356;28;20048;-63
2022/05/23 04:51:17;;;;;;;1.38;0.70;;;25.40;46.10;;;;;;5026719;28;20441;-60
2022/05/23 04:53:42;;;;;;;1.25;0.73;;;25.40;46.10;;;;;;5027295;28;20041;-61
2022/05/23 04:56:08;;;;;;;0.80;0.60;;;25.40;46.10;;;;;;5029735;28;20362;-64
2022/05/23 04:58:34;;;;;;;0.82;0.68;;;25.40;46.10;;;;;;5021206;28;20030;-61
2022/05/23 05:01:01;;;;;;;0.80;0.68;;;25.40;46.10;;;;;;5027053;28;20048;-60
2022/05/23 05:03:26;;;;;;;0.98;0.63;;;25.40;46.10;;;;;;5027806;28;20033;-62
2022/05/23 05:05:52;;;;;;;1.45;0.70;;;25.40;46.10;;;;;;5025952;28;20116;-63
2022/05/23 05:08:18;;;;;;;0.85;0.60;;;25.30;46.10;;;;;;5021571;28;20036;-60
2022/05/23 05:10:45;;;;;;;1.25;0.73;;;25.30;46.10;;;;;;5027850;28;20041;-63
2022/05/23 05:13:10;;;;;;;1.17;0.70;;;25.30;46.10;;;;;;5026289;28;20028;-59
2022/05/23 05:15:36;;;;;;;0.63;0.60;;;25.30;46.10;;;;;;5028312;28;20032;-64
2022/05/23 05:18:02;;;;;;;0.65;0.60;;;25.30;46.10;;;;;;5024771;28;20125;-63
2022/05/23 05:20:29;;;;;;;0.63;0.60;;;25.30;46.10;;;;;;5028778;28;20481;-64
2022/05/23 05:22:54;;;;;;;1.30;0.63;;;25.30;46.10;;;;;;5025829;28;20107;-65
2022/05/23 05:25:21;;;;;;;0.98;0.68;;;25.30;46.10;;;;;;5030700;28;20068;-64
2022/05/23 05:27:47;;;;;;;0.88;0.70;;;25.30;46.10;;;;;;5026316;28;20517;-63
2022/05/23 05:30:19;;;;;;;1.20;0.70;;;25.30;46.10;;;;;;5025533;28;20094;-62
2022/05/23 05:32:59;;;;;;;0.80;0.70;;;25.30;46.10;;;;;;5023451;28;20033;-61
2022/05/23 05:35:29;;;;;;;0.60;0.60;;;25.30;46.10;;;;;;5028529;28;20036;-62
2022/05/23 05:38:05;;;;;;;0.65;0.63;;;25.30;46.10;;;;;;5026243;28;20086;-61
2022/05/23 05:40:34;;;;;;;0.68;0.68;;;25.30;46.10;;;;;;5028065;28;20057;-62
2022/05/23 05:43:08;;;;;;;0.80;0.68;;;25.30;46.20;;;;;;5027030;28;20055;-61
2022/05/23 05:45:50;;;;;;;0.80;0.60;;;25.30;46.10;;;;;;5028911;28;20112;-64
2022/05/23 05:48:17;;;;;;;0.95;0.63;;;25.20;46.10;;;;;;5025663;28;20114;-64
2022/05/23 05:50:44;;;;;;;1.17;0.60;;;25.30;46.20;;;;;;5023618;28;20373;-64
2022/05/23 05:53:14;;;;;;;0.70;0.60;;;25.30;46.20;;;;;;5006676;28;20105;-65
2022/05/23 05:55:42;;;;;;;2.13;0.60;;;25.30;46.20;;;;;;5027871;28;20083;-63
2022/05/23 05:58:08;;;;;;;1.23;0.70;;;25.30;46.20;;;;;;5024247;28;20120;-61
2022/05/23 06:00:34;;;;;;;1.15;0.70;;;25.30;46.20;;;;;;5027242;28;20037;-64
2022/05/23 06:02:59;;;;;;;1.17;0.80;;;25.30;46.20;;;;;;5027466;28;20404;-60
2022/05/23 06:05:25;;;;;;;0.57;0.57;;;25.30;46.20;;;;;;5028589;28;20028;-63
2022/05/23 06:13:19;;;;;;;0.60;0.60;;;25.30;46.20;;;;;;5026101;28;20168;-65
2022/05/23 06:15:45;;;;;;;1.42;0.70;;;25.20;46.20;;;;;;5028541;28;20120;-61
2022/05/23 06:18:11;;;;;;;1.23;0.70;;;25.20;46.20;;;;;;5027318;28;20043;-63
2022/05/23 06:20:38;;;;;;;1.42;0.70;;;25.20;46.20;;;;;;5029879;28;20025;-63
2022/05/23 06:23:04;;;;;;;1.02;0.75;;;25.20;46.20;;;;;;5028842;28;20041;-62
2022/05/23 06:25:31;;;;;;;1.13;0.77;;;25.20;46.20;;;;;;5028445;28;20052;-63
2022/05/23 06:27:56;;;;;;;1.58;0.70;;;25.20;46.20;;;;;;5026678;28;20103;-63
2022/05/23 06:30:23;;;;;;;1.20;0.73;;;25.20;46.20;;;;;;5026538;28;20033;-64
2022/05/23 06:32:49;;;;;;;1.10;0.77;;;25.20;46.30;;;;;;5028893;28;20091;-64
2022/05/23 06:35:15;;;;;;;1.73;0.80;;;25.20;46.20;;;;;;5030511;28;20500;-64
2022/05/23 06:37:42;;;;;;;1.15;0.70;;;25.20;46.30;;;;;;5028604;28;20441;-62
2022/05/23 06:40:11;;;;;;;1.95;0.85;;;25.20;46.30;;;;;;5027376;28;20091;-63
2022/05/23 06:42:37;;;;;;;1.33;0.80;;;25.20;46.30;;;;;;5024282;28;20520;-63
2022/05/23 06:45:05;;;;;;;1.08;0.80;;;25.20;46.30;;;;;;5029329;28;20072;-63
2022/05/23 06:47:31;;;;;;;1.73;0.95;;;25.20;46.30;;;;;;5030144;28;20040;-64
2022/05/23 06:49:56;;;;;;;1.20;0.73;;;25.20;46.30;;;;;;5028589;28;20106;-60
2022/05/23 06:52:22;;;;;;;2.03;0.90;;;25.20;46.30;;;;;;5026154;28;20017;-64
2022/05/23 06:54:48;;;;;;;1.85;0.85;;;25.10;46.20;;;;;;5026984;28;20033;-61
2022/05/23 06:57:14;;;;;;;1.98;0.90;;;25.10;46.30;;;;;;5024001;28;20032;-62
2022/05/23 06:59:40;;;;;;;2.40;0.90;;;25.10;46.30;;;;;;5027644;28;20037;-63
2022/05/23 07:02:07;;;;;;;3.10;1.05;;;25.10;46.80;;;;;;5028946;28;20068;-62
2022/05/23 07:12:51;;;;;;;2.92;1.10;;;25.10;46.30;;;;;;5026092;28;20095;-63
2022/05/23 07:15:17;;;;;;;2.38;1.15;;;25.10;46.30;;;;;;5033041;28;20045;-59
2022/05/23 07:17:44;;;;;;;1.67;0.93;;;25.10;46.30;;;;;;5030517;28;20037;-62
2022/05/23 07:20:11;;;;;;;2.10;0.88;;;25.10;46.40;;;;;;5031961;28;20045;-62
2022/05/23 07:22:36;;;;;;;1.95;0.93;;;25.10;46.30;;;;;;5028859;28;20037;-64
2022/05/23 07:25:03;;;;;;;2.58;1.00;;;25.10;46.30;;;;;;5031821;28;20033;-62
2022/05/23 07:27:29;;;;;;;1.63;1.00;;;25.10;46.30;;;;;;5027399;28;20025;-63
2022/05/23 07:29:56;;;;;;;2.22;1.10;;;25.10;46.40;;;;;;5030766;28;20040;-63
2022/05/23 07:32:22;;;;;;;1.70;0.90;;;25.10;46.40;;;;;;5029637;28;21034;-64
